Time;durP1;ratioP1;P1;durP2;ratioP2;P2;SDS_P1;SDS_P2;PMS_P1;PMS_P2;Temp;Humidity;BMP_temperature;BMP_pressure;BME280_temperature;BME280_humidity;BME280_pressure;Samples;Min_cycle;Max_cycle;Signal;HPM_P1;HPM_P2
2023/07/27 00:01:34;;;;;;;1.27;1.10;;;;;;;14.21;100.00;99221.88;5071425;28;20193;-77
2023/07/27 00:04:00;;;;;;;1.17;1.07;;;;;;;14.16;100.00;99219.13;5070656;28;20191;-76
2023/07/27 00:06:27;;;;;;;1.47;1.20;;;;;;;14.13;100.00;99208.06;5064669;28;20231;-77
2023/07/27 00:08:54;;;;;;;1.20;1.10;;;;;;;14.14;100.00;99220.47;5067429;28;20254;-77
2023/07/27 00:11:21;;;;;;;1.83;1.17;;;;;;;14.09;100.00;99218.53;5068907;28;20212;-76
2023/07/27 00:13:47;;;;;;;1.33;1.10;;;;;;;14.18;100.00;99214.31;5067642;28;20648;-77
2023/07/27 00:16:14;;;;;;;1.40;1.10;;;;;;;14.31;100.00;99210.41;5071628;28;20204;-76
2023/07/27 00:18:41;;;;;;;1.30;1.20;;;;;;;14.19;100.00;99213.22;5067928;28;20283;-77
2023/07/27 00:21:07;;;;;;;1.10;1.10;;;;;;;14.14;100.00;99209.69;5071943;28;20195;-76
2023/07/27 00:23:34;;;;;;;2.20;1.20;;;;;;;14.21;100.00;99215.69;5066567;28;20192;-76
2023/07/27 00:26:01;;;;;;;3.23;1.27;;;;;;;14.26;100.00;99216.56;5070069;28;20615;-77
2023/07/27 00:28:27;;;;;;;1.30;1.20;;;;;;;14.14;100.00;99220.47;5066723;28;20209;-76
2023/07/27 00:30:54;;;;;;;0.90;0.90;;;;;;;14.00;100.00;99217.31;5055163;28;20219;-77
2023/07/27 00:33:21;;;;;;;1.37;1.10;;;;;;;13.97;100.00;99202.50;5070233;28;20216;-77
2023/07/27 00:35:55;;;;;;;1.77;1.10;;;;;;;13.99;100.00;99211.16;5068205;28;20683;-77
2023/07/27 00:38:24;;;;;;;1.20;1.10;;;;;;;13.98;100.00;99212.19;5066450;28;20678;-77
2023/07/27 00:40:51;;;;;;;1.67;1.20;;;;;;;14.17;100.00;99210.00;5062107;28;20212;-77
2023/07/27 00:43:18;;;;;;;1.20;1.10;;;;;;;14.05;100.00;99206.59;5071223;28;20564;-77
2023/07/27 00:45:46;;;;;;;1.27;1.17;;;;;;;14.02;100.00;99196.34;5071311;28;20185;-77
2023/07/27 00:48:13;;;;;;;1.27;1.17;;;;;;;14.03;100.00;99214.13;5071511;28;20200;-77
2023/07/27 00:50:40;;;;;;;1.17;1.07;;;;;;;14.06;100.00;99216.31;5071230;28;20227;-77
2023/07/27 00:53:08;;;;;;;2.50;1.10;;;;;;;14.07;100.00;99210.69;5071126;28;20189;-76
2023/07/27 00:55:36;;;;;;;1.30;1.10;;;;;;;14.02;100.00;99204.44;5071215;28;20687;-77
2023/07/27 00:58:02;;;;;;;1.20;1.10;;;;;;;13.96;100.00;99205.41;5047948;28;20196;-76
2023/07/27 01:00:31;;;;;;;1.70;1.20;;;;;;;13.97;100.00;99209.75;5043481;28;20205;-77
2023/07/27 01:03:00;;;;;;;1.23;1.13;;;;;;;14.18;100.00;99210.81;5047981;28;20193;-77
2023/07/27 01:05:27;;;;;;;1.50;1.30;;;;;;;14.06;100.00;99210.94;5074979;28;20203;-76
2023/07/27 01:07:54;;;;;;;2.00;1.20;;;;;;;14.06;100.00;99203.66;5061530;28;20200;-76
2023/07/27 01:10:29;;;;;;;1.20;1.10;;;;;;;13.97;100.00;99197.09;5055284;28;20212;-77
2023/07/27 01:13:01;;;;;;;1.30;1.20;;;;;;;14.07;100.00;99208.00;5058681;28;20272;-78
2023/07/27 01:15:30;;;;;;;1.60;1.30;;;;;;;13.89;100.00;99202.94;5069636;28;20290;-77
2023/07/27 01:18:04;;;;;;;1.30;1.20;;;;;;;13.94;100.00;99207.56;5075041;28;20230;-77
2023/07/27 01:20:47;;;;;;;1.57;1.10;;;;;;;13.69;100.00;99213.44;5056034;28;20723;-77
2023/07/27 01:23:33;;;;;;;1.37;1.27;;;;;;;13.82;100.00;99214.94;5074941;28;20563;-77
2023/07/27 01:26:12;;;;;;;1.83;1.20;;;;;;;13.76;100.00;99202.50;5074835;28;20196;-77
2023/07/27 01:28:59;;;;;;;1.97;1.23;;;;;;;13.73;100.00;99209.19;5051718;28;20223;-77
2023/07/27 01:31:31;;;;;;;1.40;1.30;;;;;;;13.59;100.00;99207.91;5062457;28;20220;-76
2023/07/27 01:34:02;;;;;;;1.27;1.17;;;;;;;13.69;100.00;99202.69;5055002;28;20193;-77
2023/07/27 01:36:40;;;;;;;1.43;1.27;;;;;;;13.62;100.00;99210.13;5048773;28;20189;-76
2023/07/27 01:39:09;;;;;;;1.23;1.10;;;;;;;13.59;100.00;99200.66;5071377;28;20262;-76
2023/07/27 01:41:41;;;;;;;1.30;1.20;;;;;;;13.62;100.00;99208.22;5052507;28;20257;-77
2023/07/27 01:44:09;;;;;;;1.50;1.40;;;;;;;13.74;100.00;99191.97;5073446;28;20737;-76
2023/07/27 01:46:37;;;;;;;1.40;1.30;;;;;;;13.62;100.00;99197.47;5074170;28;20195;-77
2023/07/27 01:49:04;;;;;;;2.87;1.27;;;;;;;13.63;100.00;99193.72;5046513;28;20219;-76
2023/07/27 01:51:31;;;;;;;1.37;1.27;;;;;;;13.67;100.00;99194.03;5067014;28;20225;-76
2023/07/27 01:53:59;;;;;;;1.60;1.27;;;;;;;13.64;100.00;99199.91;5060915;28;20253;-77
2023/07/27 01:56:26;;;;;;;1.77;1.17;;;;;;;13.65;100.00;99202.38;5074151;28;20211;-76
2023/07/27 01:58:53;;;;;;;1.50;1.40;;;;;;;13.66;100.00;99197.81;5062789;28;20303;-77
2023/07/27 02:01:20;;;;;;;1.50;1.27;;;;;;;13.66;100.00;99198.63;5052390;28;20208;-77
2023/07/27 02:03:48;;;;;;;1.73;1.20;;;;;;;13.66;100.00;99195.13;5063914;28;20200;-77
2023/07/27 02:06:15;;;;;;;1.77;1.37;;;;;;;13.60;100.00;99194.22;5090228;28;20234;-77
2023/07/27 02:08:42;;;;;;;1.53;1.20;;;;;;;13.66;100.00;99190.53;5112952;28;20193;-78
2023/07/27 02:11:09;;;;;;;2.83;1.50;;;;;;;13.60;100.00;99188.03;5102754;28;20200;-77
2023/07/27 02:13:51;;;;;;;1.60;1.30;;;;;;;13.48;100.00;99193.53;5088185;28;20198;-77
2023/07/27 02:16:41;;;;;;;1.33;1.23;;;;;;;13.42;100.00;99199.09;5084697;28;20574;-77
2023/07/27 02:19:10;;;;;;;2.30;1.50;;;;;;;13.43;100.00;99200.72;5088118;28;20214;-78
2023/07/27 02:21:37;;;;;;;1.70;1.60;;;;;;;13.54;100.00;99203.28;5090247;28;20192;-77
2023/07/27 02:24:05;;;;;;;1.47;1.30;;;;;;;13.44;100.00;99199.63;5089690;28;20572;-77
2023/07/27 02:26:32;;;;;;;1.80;1.50;;;;;;;13.51;100.00;99202.97;5101135;28;20658;-77
2023/07/27 02:28:59;;;;;;;1.80;1.57;;;;;;;13.42;100.00;99201.78;5089855;28;20222;-76
2023/07/27 02:31:26;;;;;;;1.60;1.47;;;;;;;13.44;100.00;99205.84;5078698;28;20283;-77
2023/07/27 02:33:53;;;;;;;1.37;1.27;;;;;;;13.45;100.00;99212.84;5101823;28;20275;-77
2023/07/27 02:36:20;;;;;;;1.50;1.40;;;;;;;13.39;100.00;99211.16;5110620;28;20288;-77
2023/07/27 02:38:46;;;;;;;1.57;1.47;;;;;;;13.41;100.00;99214.41;5092104;28;20211;-77
2023/07/27 02:41:13;;;;;;;1.70;1.50;;;;;;;13.47;100.00;99215.31;5087467;28;20296;-77
2023/07/27 02:43:41;;;;;;;1.53;1.43;;;;;;;13.33;100.00;99214.84;5088440;28;20264;-78
2023/07/27 02:46:08;;;;;;;2.00;1.80;;;;;;;13.19;100.00;99209.00;5094222;28;20206;-76
2023/07/27 02:48:35;;;;;;;1.93;1.73;;;;;;;13.30;100.00;99220.69;5089400;28;20277;-76
2023/07/27 02:51:02;;;;;;;1.97;1.40;;;;;;;13.27;100.00;99221.22;5082968;28;20245;-77
2023/07/27 02:53:29;;;;;;;1.73;1.60;;;;;;;13.34;100.00;99219.19;5106598;28;20194;-76
2023/07/27 02:56:05;;;;;;;1.77;1.50;;;;;;;13.37;100.00;99220.53;5083995;28;20234;-76
2023/07/27 02:58:40;;;;;;;1.60;1.50;;;;;;;13.34;100.00;99221.03;5079390;28;20202;-76
2023/07/27 03:01:07;;;;;;;2.10;1.50;;;;;;;13.31;100.00;99232.28;5079163;28;20198;-76
2023/07/27 03:03:34;;;;;;;1.47;1.37;;;;;;;13.33;100.00;99232.84;5087999;28;20738;-76
2023/07/27 03:06:07;;;;;;;1.90;1.50;;;;;;;13.28;100.00;99233.59;5081628;28;20224;-76
2023/07/27 03:08:36;;;;;;;1.97;1.63;;;;;;;13.21;100.00;99227.56;5091523;28;20195;-77
2023/07/27 03:11:05;;;;;;;1.57;1.47;;;;;;;13.39;100.00;99229.19;5091719;28;20329;-76
2023/07/27 03:13:32;;;;;;;1.57;1.40;;;;;;;13.34;100.00;99246.06;5093057;28;20227;-76
2023/07/27 03:16:02;;;;;;;1.40;1.30;;;;;;;13.38;100.00;99241.81;5092872;28;20574;-76
2023/07/27 03:18:28;;;;;;;1.60;1.50;;;;;;;13.34;100.00;99247.94;5074737;28;20658;-76
2023/07/27 03:20:55;;;;;;;1.40;1.30;;;;;;;13.33;100.00;99249.00;5093191;28;20557;-76
2023/07/27 03:23:22;;;;;;;1.50;1.40;;;;;;;13.38;100.00;99249.09;5091723;28;20217;-77
2023/07/27 03:25:50;;;;;;;1.60;1.50;;;;;;;13.35;100.00;99257.63;5091143;28;20203;-77
2023/07/27 03:28:16;;;;;;;2.67;1.40;;;;;;;13.32;100.00;99258.94;5085694;28;20568;-76
2023/07/27 03:30:43;;;;;;;1.93;1.40;;;;;;;13.31;100.00;99262.69;5089860;28;20219;-78
2023/07/27 03:33:10;;;;;;;1.63;1.53;;;;;;;13.48;100.00;99254.63;5081158;28;20204;-77
2023/07/27 03:35:37;;;;;;;1.50;1.40;;;;;;;13.47;100.00;99261.88;5091358;28;20192;-76
2023/07/27 03:38:03;;;;;;;3.43;1.50;;;;;;;13.55;100.00;99266.81;5092230;28;20203;-76
2023/07/27 03:40:30;;;;;;;1.37;1.27;;;;;;;13.49;100.00;99264.28;5083691;28;20235;-76
2023/07/27 03:42:58;;;;;;;1.37;1.27;;;;;;;13.41;100.00;99264.72;5086739;28;20288;-77
2023/07/27 03:45:25;;;;;;;2.10;1.50;;;;;;;13.48;100.00;99265.38;5082314;28;20195;-77
2023/07/27 03:47:51;;;;;;;2.00;1.40;;;;;;;13.42;100.00;99274.44;5081490;28;20196;-77
2023/07/27 03:50:18;;;;;;;1.70;1.47;;;;;;;13.50;100.00;99274.00;5087894;28;20202;-76
2023/07/27 03:52:46;;;;;;;1.87;1.37;;;;;;;13.55;100.00;99266.00;5083058;28;20199;-77
2023/07/27 03:55:13;;;;;;;2.13;1.90;;;;;;;13.68;100.00;99273.72;5073878;28;20657;-77
2023/07/27 03:57:40;;;;;;;1.97;1.70;;;;;;;13.70;100.00;99276.19;5105533;28;20574;-78
2023/07/27 04:00:07;;;;;;;2.50;1.33;;;;;;;13.66;100.00;99278.56;5087951;28;20198;-76
2023/07/27 04:02:40;;;;;;;1.87;1.47;;;;;;;13.77;100.00;99274.09;5090907;28;20224;-76
2023/07/27 04:05:07;;;;;;;2.20;1.53;;;;;;;13.98;100.00;99289.50;5091979;28;20187;-75
2023/07/27 04:07:34;;;;;;;1.40;1.30;;;;;;;15.21;100.00;99282.47;5069235;28;20244;-77
2023/07/27 04:10:00;;;;;;;1.83;1.50;;;;;;;16.66;100.00;99291.63;5069144;28;20215;-77
2023/07/27 04:12:27;;;;;;;1.40;1.30;;;;;;;17.87;100.00;99285.41;5065822;28;20216;-76
2023/07/27 04:14:55;;;;;;;1.40;1.30;;;;;;;18.75;100.00;99289.13;5069660;28;20567;-77
2023/07/27 04:17:22;;;;;;;1.87;1.53;;;;;;;19.62;100.00;99281.91;5071132;28;20195;-77
2023/07/27 04:19:49;;;;;;;2.03;1.47;;;;;;;19.92;100.00;99282.69;5057264;28;20228;-77
2023/07/27 04:22:15;;;;;;;1.60;1.50;;;;;;;19.21;100.00;99278.75;5067409;28;20197;-76
2023/07/27 04:24:44;;;;;;;1.30;1.20;;;;;;;18.92;100.00;99291.44;5051902;28;20288;-77
2023/07/27 04:27:12;;;;;;;1.53;1.43;;;;;;;17.83;100.00;99278.91;5059737;28;20357;-76
2023/07/27 04:29:38;;;;;;;1.40;1.30;;;;;;;17.15;100.00;99275.72;5055232;28;20227;-77
2023/07/27 04:32:07;;;;;;;1.70;1.60;;;;;;;16.58;100.00;99281.31;5071397;28;20216;-77
2023/07/27 04:34:34;;;;;;;1.60;1.50;;;;;;;16.24;100.00;99294.44;5058603;28;20663;-76
2023/07/27 04:37:01;;;;;;;1.93;1.30;;;;;;;16.11;100.00;99286.81;5071614;28;20675;-76
2023/07/27 04:39:27;;;;;;;1.60;1.50;;;;;;;15.97;100.00;99286.47;5074509;28;20193;-76
2023/07/27 04:41:54;;;;;;;2.07;1.40;;;;;;;15.94;100.00;99288.91;5066128;28;20208;-76
2023/07/27 04:44:21;;;;;;;2.73;1.53;;;;;;;15.86;100.00;99293.72;5055590;28;20211;-77
2023/07/27 04:46:48;;;;;;;2.10;1.50;;;;;;;15.91;100.00;99292.91;5075916;28;20220;-77
2023/07/27 04:49:14;;;;;;;1.50;1.33;;;;;;;15.99;100.00;99295.16;5075759;28;20193;-77
2023/07/27 04:51:41;;;;;;;1.20;1.10;;;;;;;16.10;100.00;99291.41;5075520;28;20282;-77
2023/07/27 04:54:08;;;;;;;1.60;1.43;;;;;;;16.25;100.00;99282.53;5075564;28;20629;-77
2023/07/27 04:56:34;;;;;;;2.10;1.40;;;;;;;16.33;100.00;99292.06;5075767;28;20242;-77
2023/07/27 04:59:01;;;;;;;1.53;1.40;;;;;;;16.41;100.00;99292.34;5075686;28;20201;-77
2023/07/27 05:01:28;;;;;;;1.30;1.20;;;;;;;16.56;100.00;99286.19;5054275;28;20208;-76
2023/07/27 05:03:55;;;;;;;1.43;1.30;;;;;;;16.67;100.00;99293.25;5072572;28;20199;-76
2023/07/27 05:06:22;;;;;;;1.60;1.47;;;;;;;16.67;100.00;99295.97;5083241;28;20310;-75
2023/07/27 05:08:48;;;;;;;2.40;1.40;;;;;;;16.75;100.00;99289.22;5106277;28;20642;-76
2023/07/27 05:11:15;;;;;;;1.77;1.33;;;;;;;16.90;100.00;99294.63;5111244;28;20219;-76
2023/07/27 05:13:42;;;;;;;1.57;1.47;;;;;;;17.01;100.00;99291.69;5102986;28;20191;-76
2023/07/27 05:16:08;;;;;;;1.50;1.20;;;;;;;17.18;100.00;99296.84;5103601;28;20542;-77
2023/07/27 05:18:35;;;;;;;1.70;1.60;;;;;;;17.24;100.00;99305.78;5102242;28;20195;-78
2023/07/27 05:21:02;;;;;;;1.50;1.40;;;;;;;17.34;100.00;99297.66;5104111;28;20203;-76
2023/07/27 05:23:29;;;;;;;1.70;1.40;;;;;;;17.49;100.00;99294.94;5110580;28;20657;-76
2023/07/27 05:25:55;;;;;;;1.90;1.20;;;;;;;17.57;100.00;99303.31;5111466;28;20199;-76
2023/07/27 05:28:22;;;;;;;2.00;1.20;;;;;;;17.71;100.00;99302.78;5103096;28;20212;-76
2023/07/27 05:30:49;;;;;;;1.20;1.10;;;;;;;17.79;100.00;99302.22;5106733;28;20183;-82
2023/07/27 05:33:15;;;;;;;1.70;1.40;;;;;;;17.88;100.00;99304.09;5112110;28;20612;-76
2023/07/27 05:35:47;;;;;;;1.40;1.30;;;;;;;17.89;100.00;99299.50;5103120;28;20195;-76
2023/07/27 05:38:15;;;;;;;2.73;1.40;;;;;;;17.86;100.00;99294.63;5089866;28;20211;-76
2023/07/27 05:40:41;;;;;;;1.33;1.20;;;;;;;18.01;100.00;99297.28;5095421;28;20694;-76
2023/07/27 05:43:08;;;;;;;1.50;1.40;;;;;;;17.99;100.00;99302.19;5094442;28;20194;-77
2023/07/27 05:45:38;;;;;;;1.80;1.37;;;;;;;18.07;100.00;99295.38;5092764;28;20578;-76
2023/07/27 05:48:06;;;;;;;1.40;1.30;;;;;;;18.28;100.00;99307.78;5094175;28;20220;-76
2023/07/27 05:50:34;;;;;;;1.40;1.30;;;;;;;18.27;100.00;99298.81;5094736;28;20195;-76
2023/07/27 05:53:01;;;;;;;1.70;1.50;;;;;;;18.40;100.00;99303.66;5076631;28;20690;-76
2023/07/27 05:55:27;;;;;;;1.40;1.23;;;;;;;18.48;100.00;99313.09;5094194;28;20193;-76
2023/07/27 05:57:54;;;;;;;1.63;1.47;;;;;;;18.52;100.00;99306.03;5097468;28;20203;-77
2023/07/27 06:00:26;;;;;;;1.67;1.37;;;;;;;18.70;100.00;99310.84;5098019;28;20193;-78
2023/07/27 06:02:55;;;;;;;2.10;1.53;;;;;;;18.70;100.00;99299.19;5094250;28;20214;-76
2023/07/27 06:05:22;;;;;;;2.90;1.40;;;;;;;18.80;100.00;99307.28;5098325;28;20195;-76
2023/07/27 06:07:49;;;;;;;1.50;1.40;;;;;;;18.80;100.00;99312.69;5073820;28;20199;-76
2023/07/27 06:10:15;;;;;;;1.27;1.10;;;;;;;18.78;100.00;99304.00;5061825;28;20663;-76
2023/07/27 06:12:42;;;;;;;2.37;1.53;;;;;;;18.92;100.00;99297.69;5068782;28;20273;-76
2023/07/27 06:15:09;;;;;;;1.40;1.30;;;;;;;19.09;100.00;99299.19;5064059;28;20192;-77
2023/07/27 06:17:36;;;;;;;1.60;1.50;;;;;;;19.18;100.00;99305.63;5073390;28;20528;-77
2023/07/27 06:20:05;;;;;;;4.00;1.47;;;;;;;19.32;100.00;99296.53;5073260;28;20615;-77
2023/07/27 06:22:32;;;;;;;1.30;1.20;;;;;;;19.32;100.00;99299.25;5073258;28;20201;-78
2023/07/27 06:24:59;;;;;;;1.77;1.40;;;;;;;19.27;100.00;99293.09;5073323;28;20214;-76
2023/07/27 06:27:26;;;;;;;1.50;1.40;;;;;;;19.22;100.00;99293.91;5073285;28;20210;-78
2023/07/27 06:29:52;;;;;;;1.70;1.50;;;;;;;19.49;100.00;99298.06;5072928;28;20710;-79
2023/07/27 06:32:19;;;;;;;1.70;1.60;;;;;;;19.31;100.00;99289.53;5073114;28;20227;-77
2023/07/27 06:34:46;;;;;;;1.57;1.33;;;;;;;19.20;100.00;99292.59;5073675;28;20200;-76
2023/07/27 06:37:13;;;;;;;1.90;1.70;;;;;;;19.29;100.00;99288.16;5072613;28;20201;-76
2023/07/27 06:39:40;;;;;;;1.87;1.50;;;;;;;19.34;100.00;99288.94;5072557;28;20711;-76
2023/07/27 06:42:06;;;;;;;2.50;1.40;;;;;;;19.37;100.00;99284.81;5072964;28;20190;-76
2023/07/27 06:44:34;;;;;;;1.63;1.53;;;;;;;19.41;100.00;99283.16;5066428;28;20260;-77
2023/07/27 06:47:01;;;;;;;1.80;1.60;;;;;;;19.40;100.00;99278.84;5073435;28;20189;-78
2023/07/27 06:49:31;;;;;;;1.87;1.57;;;;;;;19.32;100.00;99288.41;5070256;28;20199;-77
2023/07/27 06:51:58;;;;;;;1.73;1.43;;;;;;;19.48;100.00;99277.44;5072838;28;20204;-76
2023/07/27 06:54:24;;;;;;;1.80;1.70;;;;;;;19.57;100.00;99283.88;5068372;28;20199;-78
2023/07/27 06:56:51;;;;;;;1.70;1.60;;;;;;;19.42;100.00;99284.78;5072736;28;20258;-76
2023/07/27 06:59:18;;;;;;;1.70;1.60;;;;;;;19.66;100.00;99288.41;5072734;28;20193;-76
2023/07/27 07:01:44;;;;;;;1.63;1.50;;;;;;;19.75;100.00;99288.56;5069670;28;20271;-77
2023/07/27 07:04:11;;;;;;;2.97;1.63;;;;;;;19.80;100.00;99293.97;5069854;28;20728;-78
2023/07/27 07:06:40;;;;;;;1.90;1.60;;;;;;;19.86;100.00;99292.00;5070538;28;20258;-78
2023/07/27 07:09:07;;;;;;;1.93;1.40;;;;;;;19.98;100.00;99290.50;5052551;28;20632;-79
2023/07/27 07:11:34;;;;;;;1.80;1.50;;;;;;;20.05;99.49;99284.72;5059964;28;20227;-79
2023/07/27 07:14:01;;;;;;;2.90;1.60;;;;;;;20.08;98.16;99289.56;5072218;28;20211;-79
2023/07/27 07:16:28;;;;;;;3.33;1.80;;;;;;;19.98;98.34;99290.50;5072098;28;20201;-79
2023/07/27 07:18:55;;;;;;;2.07;1.80;;;;;;;20.04;99.36;99288.53;5070883;28;20648;-80
2023/07/27 07:21:21;;;;;;;2.07;1.57;;;;;;;20.30;98.00;99292.59;5063947;28;20189;-77
2023/07/27 07:23:48;;;;;;;3.17;1.60;;;;;;;20.40;99.34;99287.03;5072316;28;20203;-79
2023/07/27 07:26:15;;;;;;;1.80;1.70;;;;;;;20.46;96.08;99285.06;5072167;28;20209;-76
2023/07/27 07:28:41;;;;;;;1.40;1.30;;;;;;;20.52;99.02;99281.97;5068306;28;20214;-77
2023/07/27 07:31:08;;;;;;;1.73;1.60;;;;;;;20.58;94.64;99285.41;5071035;28;20196;-78
2023/07/27 07:33:35;;;;;;;1.60;1.50;;;;;;;20.72;93.44;99277.38;5072061;28;20670;-77
2023/07/27 07:36:02;;;;;;;1.50;1.40;;;;;;;20.70;92.34;99274.94;5072236;28;20210;-78
2023/07/27 07:38:30;;;;;;;2.30;1.60;;;;;;;20.67;91.21;99270.03;5072194;28;20202;-78
2023/07/27 07:40:56;;;;;;;1.93;1.40;;;;;;;20.72;91.62;99269.97;5072208;28;20197;-79
2023/07/27 07:43:23;;;;;;;1.50;1.40;;;;;;;20.64;92.20;99271.47;5072314;28;20681;-77
2023/07/27 07:45:50;;;;;;;2.10;1.47;;;;;;;20.73;91.17;99276.25;5072191;28;20203;-77
2023/07/27 07:48:17;;;;;;;2.63;1.67;;;;;;;20.66;89.73;99279.34;5072112;28;20223;-78
2023/07/27 07:50:44;;;;;;;2.20;1.60;;;;;;;20.75;90.22;99274.03;5068415;28;20660;-78
2023/07/27 07:53:11;;;;;;;1.63;1.53;;;;;;;20.92;90.50;99271.59;5068551;28;20640;-78
2023/07/27 07:55:55;;;;;;;2.73;1.40;;;;;;;20.82;87.49;99260.84;5069546;28;20196;-79
2023/07/27 07:58:22;;;;;;;1.70;1.60;;;;;;;21.12;86.83;99262.31;5072082;28;20188;-76
2023/07/27 08:00:49;;;;;;;2.40;1.47;;;;;;;21.27;85.98;99264.81;5072112;28;20193;-78
2023/07/27 08:03:16;;;;;;;1.77;1.63;;;;;;;21.41;84.74;99261.03;5072099;28;20189;-78
2023/07/27 08:05:43;;;;;;;4.50;1.80;;;;;;;21.53;81.92;99263.25;5067064;28;20704;-77
2023/07/27 08:08:09;;;;;;;1.80;1.70;;;;;;;21.76;83.66;99264.19;5067447;28;20201;-77
2023/07/27 08:10:36;;;;;;;2.97;1.85;;;;;;;22.07;83.34;99269.91;5069751;28;20213;-76
2023/07/27 08:13:03;;;;;;;1.80;1.70;;;;;;;22.16;82.81;99265.34;5069280;28;20227;-76
2023/07/27 08:15:29;;;;;;;2.70;1.70;;;;;;;22.06;81.97;99254.66;5071191;28;20478;-77
2023/07/27 08:17:56;;;;;;;1.77;1.55;;;;;;;22.03;79.35;99255.22;5071052;28;20203;-76
2023/07/27 08:20:23;;;;;;;2.40;1.70;;;;;;;21.92;81.30;99263.59;5071406;28;20223;-78
2023/07/27 08:22:49;;;;;;;2.37;1.87;;;;;;;21.92;76.11;99249.97;5071186;28;20230;-77
2023/07/27 08:25:16;;;;;;;2.63;1.52;;;;;;;21.87;76.64;99252.81;5071320;28;20202;-76
2023/07/27 08:27:50;;;;;;;1.70;1.60;;;;;;;21.45;78.34;99240.22;5069788;28;20222;-76
2023/07/27 08:30:17;;;;;;;1.90;1.50;;;;;;;21.64;77.29;99240.16;5071649;28;20548;-78
2023/07/27 08:32:46;;;;;;;2.70;1.63;;;;;;;21.81;76.55;99236.81;5067030;28;20217;-76
2023/07/27 08:35:13;;;;;;;1.83;1.50;;;;;;;21.98;75.68;99228.88;5059959;28;20210;-78
2023/07/27 08:37:39;;;;;;;1.93;1.63;;;;;;;22.24;77.17;99235.44;5071298;28;20197;-76
2023/07/27 08:40:08;;;;;;;2.65;1.63;;;;;;;21.92;74.86;99222.69;5071951;28;20204;-76
2023/07/27 08:42:36;;;;;;;1.85;1.70;;;;;;;22.22;74.01;99228.66;5071560;28;20250;-79
2023/07/27 08:45:05;;;;;;;2.33;1.67;;;;;;;22.19;73.87;99223.81;5069981;28;20685;-76
2023/07/27 08:47:33;;;;;;;2.35;1.70;;;;;;;22.53;75.33;99221.41;5061848;28;20216;-78
2023/07/27 08:50:00;;;;;;;1.85;1.63;;;;;;;22.53;74.27;99218.69;5056074;28;20679;-76
2023/07/27 08:52:27;;;;;;;1.45;1.35;;;;;;;22.60;74.24;99226.44;5071177;28;20281;-77
2023/07/27 08:54:54;;;;;;;2.15;1.80;;;;;;;22.89;73.49;99223.34;5071351;28;20197;-77
2023/07/27 08:57:21;;;;;;;1.73;1.55;;;;;;;23.13;72.80;99219.19;5057855;28;20606;-78
2023/07/27 08:59:47;;;;;;;2.28;1.70;;;;;;;23.25;71.86;99227.59;5071305;28;20226;-76
2023/07/27 09:02:14;;;;;;;1.73;1.50;;;;;;;23.37;71.05;99218.03;5070564;28;20202;-77
2023/07/27 09:04:41;;;;;;;1.65;1.52;;;;;;;23.15;69.46;99208.72;5068582;28;20284;-77
2023/07/27 09:07:08;;;;;;;1.70;1.60;;;;;;;23.30;69.22;99204.81;5068304;28;20687;-77
2023/07/27 09:09:35;;;;;;;2.45;1.55;;;;;;;23.52;68.24;99204.78;5068061;28;20199;-77
2023/07/27 09:12:06;;;;;;;1.60;1.50;;;;;;;23.44;67.55;99211.03;5068796;28;20725;-76
2023/07/27 09:14:36;;;;;;;2.97;1.65;;;;;;;23.72;67.03;99214.34;5070955;28;20279;-76
2023/07/27 09:17:04;;;;;;;1.50;1.40;;;;;;;23.86;64.70;99206.03;5059824;28;20193;-76
2023/07/27 09:19:42;;;;;;;1.67;1.35;;;;;;;24.27;63.21;99208.41;5057120;28;20194;-77
2023/07/27 09:22:09;;;;;;;2.00;1.58;;;;;;;24.70;64.15;99208.47;5038731;28;20197;-78
2023/07/27 09:24:36;;;;;;;1.80;1.67;;;;;;;25.17;64.43;99204.75;5048867;28;20658;-77
2023/07/27 09:27:09;;;;;;;1.58;1.38;;;;;;;25.33;63.03;99202.28;5067548;28;20299;-77
2023/07/27 09:29:36;;;;;;;1.77;1.60;;;;;;;24.87;61.39;99203.81;5060606;28;20296;-77
2023/07/27 09:32:05;;;;;;;1.70;1.60;;;;;;;24.78;60.31;99191.22;5056336;28;20193;-76
2023/07/27 09:34:32;;;;;;;1.63;1.33;;;;;;;24.74;63.59;99204.75;5061069;28;20252;-77
2023/07/27 09:37:03;;;;;;;1.80;1.45;;;;;;;24.42;61.42;99197.00;5036618;28;20619;-77
2023/07/27 09:39:32;;;;;;;1.70;1.60;;;;;;;24.23;60.46;99188.28;5045307;28;20197;-76
2023/07/27 09:41:59;;;;;;;1.60;1.50;;;;;;;24.11;60.02;99186.97;5062085;28;20182;-77
2023/07/27 09:44:26;;;;;;;2.03;1.63;;;;;;;24.16;61.83;99198.88;5057950;28;20195;-77
2023/07/27 09:46:52;;;;;;;1.92;1.50;;;;;;;24.04;60.25;99191.28;5074472;28;20187;-76
2023/07/27 09:49:20;;;;;;;1.80;1.60;;;;;;;24.22;59.34;99184.75;5066137;28;20197;-76
2023/07/27 09:51:47;;;;;;;1.70;1.60;;;;;;;24.22;59.95;99181.19;5074095;28;20490;-76
2023/07/27 09:54:14;;;;;;;2.10;1.58;;;;;;;24.30;61.14;99180.44;5056315;28;20239;-75
2023/07/27 09:56:41;;;;;;;1.65;1.40;;;;;;;23.89;60.31;99172.59;5069976;28;20655;-76
2023/07/27 09:59:07;;;;;;;1.63;1.35;;;;;;;24.28;60.35;99178.00;5068221;28;20198;-77
2023/07/27 10:01:34;;;;;;;2.15;1.80;;;;;;;24.51;61.09;99174.00;5062321;28;20740;-76
2023/07/27 10:04:01;;;;;;;2.08;1.65;;;;;;;24.56;61.33;99181.25;5058648;28;20227;-76
2023/07/27 10:06:28;;;;;;;1.60;1.48;;;;;;;24.33;60.32;99169.63;5073516;28;20240;-77
2023/07/27 10:08:56;;;;;;;2.30;1.60;;;;;;;23.95;60.25;99169.38;5058786;28;20614;-76
2023/07/27 10:11:30;;;;;;;1.80;1.50;;;;;;;24.03;60.50;99165.84;5071250;28;20191;-76
2023/07/27 10:14:16;;;;;;;1.23;1.13;;;;;;;24.36;61.91;99168.97;5066134;28;20299;-77
2023/07/27 10:16:56;;;;;;;1.45;1.35;;;;;;;24.71;60.09;99161.59;5069990;28;20195;-76
2023/07/27 10:19:23;;;;;;;1.45;1.33;;;;;;;24.99;59.51;99159.31;5072911;28;20572;-78
2023/07/27 10:21:51;;;;;;;1.80;1.70;;;;;;;25.14;59.25;99158.81;5073643;28;20196;-76
2023/07/27 10:24:24;;;;;;;1.60;1.42;;;;;;;25.24;57.42;99144.72;5070604;28;20214;-76
2023/07/27 10:26:51;;;;;;;1.60;1.50;;;;;;;25.79;54.73;99146.63;5064392;28;20205;-77
2023/07/27 10:29:24;;;;;;;1.52;1.42;;;;;;;26.32;54.38;99145.19;5073510;28;20212;-77
2023/07/27 10:32:06;;;;;;;1.40;1.30;;;;;;;26.67;55.18;99141.78;5073474;28;20197;-77
2023/07/27 10:34:34;;;;;;;1.33;1.23;;;;;;;26.78;54.41;99139.44;5073933;28;20217;-76
2023/07/27 10:37:16;;;;;;;1.73;1.63;;;;;;;26.91;51.61;99141.09;5072972;28;20196;-77
2023/07/27 10:39:46;;;;;;;1.40;1.30;;;;;;;26.92;52.77;99142.69;5067915;28;20204;-78
2023/07/27 10:42:26;;;;;;;1.60;1.50;;;;;;;26.87;51.01;99125.63;5052574;28;20202;-77
2023/07/27 10:44:55;;;;;;;1.67;1.48;;;;;;;26.26;50.49;99115.19;5068904;28;20197;-78
2023/07/27 10:47:33;;;;;;;1.85;1.60;;;;;;;26.52;52.23;99114.94;5067495;28;20189;-79
2023/07/27 10:50:00;;;;;;;1.63;1.52;;;;;;;26.88;52.00;99117.03;5064113;28;20193;-80
2023/07/27 10:52:31;;;;;;;2.20;1.67;;;;;;;26.76;50.12;99116.97;5071126;28;20197;-78
2023/07/27 10:54:59;;;;;;;1.40;1.30;;;;;;;26.71;50.30;99108.94;5044257;28;20197;-78
2023/07/27 10:57:30;;;;;;;1.48;1.38;;;;;;;26.69;48.90;99111.22;5071934;28;20193;-76
2023/07/27 10:59:58;;;;;;;1.70;1.60;;;;;;;26.86;48.08;99091.84;5055134;28;20197;-77
2023/07/27 11:02:26;;;;;;;2.05;1.65;;;;;;;27.08;49.02;99094.19;5052350;28;20649;-79
2023/07/27 11:04:58;;;;;;;1.60;1.50;;;;;;;27.34;49.66;99095.81;5067072;28;20355;-76
2023/07/27 11:07:33;;;;;;;1.67;1.58;;;;;;;27.36;47.53;99082.50;5070814;28;20723;-77
2023/07/27 11:10:08;;;;;;;2.00;1.30;;;;;;;27.56;48.19;99081.63;5056230;28;20281;-76
2023/07/27 11:12:48;;;;;;;1.70;1.60;;;;;;;27.78;47.75;99092.16;5067066;28;20212;-76
2023/07/27 11:15:21;;;;;;;1.77;1.50;;;;;;;27.49;46.25;99081.41;5066969;28;20193;-76
2023/07/27 11:17:49;;;;;;;1.65;1.55;;;;;;;26.85;46.51;99070.97;5067733;28;20232;-76
2023/07/27 11:20:18;;;;;;;1.65;1.55;;;;;;;26.96;45.44;99066.69;5055036;28;20201;-76
2023/07/27 11:22:49;;;;;;;1.65;1.50;;;;;;;27.04;45.05;99062.22;5067459;28;20258;-79
2023/07/27 11:25:16;;;;;;;1.60;1.50;;;;;;;27.19;45.11;99061.56;5072346;28;20216;-77
2023/07/27 11:27:47;;;;;;;1.80;1.70;;;;;;;27.53;46.51;99066.59;5068100;28;20667;-76
2023/07/27 11:30:21;;;;;;;1.48;1.38;;;;;;;27.72;44.57;99071.50;5069176;28;20208;-77
2023/07/27 11:33:01;;;;;;;1.65;1.50;;;;;;;27.59;45.64;99067.97;5071594;28;20212;-79
2023/07/27 11:35:29;;;;;;;1.67;1.58;;;;;;;27.77;44.37;99059.47;5067788;28;20284;-77